Date,TemperatureHighF,TemperatureAvgF,TemperatureLowF,DewpointHighF,DewpointAvgF,DewpointLowF,HumidityHigh,HumidityAvg,HumidityLow,PressureMaxIn,PressureMinIn,WindSpeedMaxMPH,WindSpeedAvgMPH,GustSpeedMaxMPH,PrecipitationSumIn
2012-1-1,75.1,57.8,43.9,61.9,51.6,42.8,100,83,46,30.25,30.11,3,0,7,0.00
2012-1-2,64.2,53.9,38.6,59.7,40.2,27.2,100,64,29,30.19,30.05,5,1,12,0.05
2012-1-3,48.4,37.7,25.1,28.2,14.7,5.2,82,42,21,30.38,30.14,6,2,16,0.00
2012-1-4,58.0,35.9,20.3,25.0,16.8,4.8,87,55,12,30.42,30.26,2,0,7,0.00
2012-1-5,70.6,46.3,25.4,48.0,36.5,21.5,95,72,39,30.29,30.12,4,0,7,0.00
2012-1-6,73.2,51.9,37.3,58.8,44.2,34.4,100,78,38,30.20,30.07,2,0,6,0.00
2012-1-7,73.4,54.8,40.6,56.6,47.5,37.5,99,79,47,30.16,30.07,1,0,3,0.00
2012-1-8,76.6,56.6,40.9,55.3,46.2,38.8,99,73,33,30.22,30.13,2,0,3,0.00
2012-1-9,76.0,58.2,43.1,58.2,50.1,40.7,98,77,45,30.21,30.07,3,0,5,0.00
2012-1-10,76.9,62.1,49.2,59.7,53.8,48.0,99,77,46,30.08,29.92,3,0,5,0.00
2012-1-11,69.1,63.1,53.1,64.8,57.5,52.0,99,83,65,29.94,29.71,8,2,13,0.09
2012-1-12,73.4,61.4,48.5,60.8,55.2,48.2,100,82,52,29.90,29.79,5,2,12,0.00
2012-1-13,63.7,50.7,42.5,57.4,34.4,21.1,83,56,25,30.21,29.90,3,1,6,0.00
2012-1-14,59.1,42.2,28.3,33.8,24.9,16.9,87,56,21,30.36,30.19,4,1,4,0.00
2012-1-15,68.9,45.2,27.2,41.1,28.8,24.1,96,61,22,30.42,30.31,4,1,12,0.00
2012-1-16,71.3,49.8,30.9,48.7,39.6,27.4,95,71,42,30.45,30.31,4,1,6,0.00
2012-1-17,76.9,56.8,39.8,56.0,47.2,37.2,99,74,43,30.32,30.11,6,1,11,0.00
2012-1-18,65.9,56.7,46.0,61.6,55.0,42.9,100,95,76,30.12,29.94,5,1,9,0.33
2012-1-19,69.9,50.5,37.0,52.3,38.4,24.0,99,71,19,30.18,30.01,2,0,4,0.00
2012-1-20,75.7,54.3,36.2,52.6,43.6,34.1,100,73,32,30.16,30.07,4,1,6,0.00
2012-1-21,74.8,59.9,48.1,56.9,51.8,44.8,98,77,48,30.13,29.99,6,1,9,0.00
2012-1-22,78.8,60.3,44.4,61.0,51.5,43.1,100,77,40,30.12,30.03,1,0,2,0.00
2012-1-23,80.8,62.8,50.4,62.1,54.8,47.5,100,79,42,30.13,30.01,5,1,8,0.00
2012-1-24,81.0,64.5,52.2,62.9,56.9,51.1,99,79,38,30.16,30.07,1,0,3,0.00
2012-1-25,80.8,66.2,52.9,64.1,57.9,52.6,100,78,43,30.17,30.06,4,1,6,0.00
2012-1-26,82.8,68.1,55.2,65.4,58.4,53.3,100,74,41,30.08,29.90,8,2,11,0.00
2012-1-27,71.1,63.2,45.7,64.2,57.9,42.9,99,84,58,30.05,29.83,7,2,11,0.12
2012-1-28,73.7,54.5,40.8,54.6,45.1,40.1,100,76,35,30.17,30.03,3,0,6,0.00
2012-1-29,73.6,54.2,38.5,49.2,42.7,37.4,99,71,28,30.32,30.16,5,1,8,0.00
2012-1-30,71.7,51.6,33.1,44.9,39.4,31.3,98,69,30,30.39,30.28,3,1,10,0.00
2012-1-31,70.3,51.6,41.6,51.9,45.5,39.7,98,82,50,30.33,30.24,1,0,2,0.00
2012-2-1,77.5,64.0,53.8,55.8,52.3,49.4,89,68,41,30.25,30.11,3,0,8,0.00
2012-2-2,80.8,64.7,53.4,59.0,54.2,-99.9,95,74,41,30.17,30.06,5,0,7,0.00
2012-2-3,77.1,63.8,52.6,61.4,55.4,51.1,99,77,48,30.23,30.13,3,0,6,0.00
2012-2-4,79.1,66.6,56.6,59.8,56.7,53.4,94,73,45,30.19,30.04,4,1,7,0.00
2012-2-5,83.1,67.2,54.4,64.8,59.4,53.0,99,79,44,30.07,29.94,2,0,5,0.00
2012-2-6,83.0,67.4,58.0,65.9,61.7,55.4,99,84,49,30.08,29.95,3,0,7,1.56
2012-2-7,66.8,60.5,53.4,61.1,58.8,52.0,100,94,80,30.08,30.00,3,0,6,0.00
2012-2-8,75.0,58.5,48.8,53.5,48.6,41.1,100,75,31,30.12,30.00,5,1,7,0.00
2012-2-9,65.3,55.0,46.6,53.1,47.6,40.3,95,77,57,30.17,30.06,3,1,7,0.00
2012-2-10,79.3,62.9,49.5,63.4,57.3,48.4,99,84,52,30.12,29.88,3,0,4,0.26
2012-2-11,66.1,54.5,43.1,60.2,43.4,19.8,98,70,38,30.15,29.83,8,2,15,0.02
2012-2-12,52.5,37.8,27.5,24.9,15.4,10.0,80,43,19,30.35,30.15,5,2,10,0.00
2012-2-13,64.8,42.3,22.8,38.0,27.1,17.6,93,62,20,30.28,30.09,2,0,6,0.00
2012-2-14,77.3,57.6,39.2,54.4,46.7,35.7,99,71,41,30.11,29.99,10,2,13,0.00
2012-2-15,80.6,69.9,60.6,62.4,59.4,56.6,89,71,51,30.17,30.07,5,1,7,0.00
2012-2-16,81.2,67.2,55.9,61.6,58.9,53.3,98,77,48,30.16,30.00,7,1,11,0.00
2012-2-17,73.0,66.9,59.9,67.5,64.3,57.9,99,92,73,30.06,29.96,1,0,4,0.03
2012-2-18,77.8,68.0,62.4,65.1,63.0,61.8,100,86,60,30.00,29.83,3,0,6,0.00
2012-2-19,78.9,67.8,58.5,68.2,61.1,50.7,97,80,59,29.89,29.73,11,4,19,0.01
2012-2-20,67.6,54.8,44.4,53.2,44.9,41.2,92,72,41,30.22,29.89,6,1,12,0.00
2012-2-21,74.1,57.6,41.9,54.4,48.3,40.2,99,74,44,30.22,30.08,3,0,5,0.00
2012-2-22,76.7,62.1,49.7,64.2,57.0,47.5,99,85,55,30.09,29.86,6,2,10,0.66
2012-2-23,80.1,71.4,64.6,70.7,66.9,64.0,99,87,63,29.90,29.82,9,3,13,0.12
2012-2-24,84.5,72.6,63.8,68.1,64.7,60.7,99,79,46,29.96,29.86,13,5,18,0.00
2012-2-25,67.6,58.6,46.7,60.1,38.2,26.1,90,50,21,30.26,29.96,7,2,11,0.04
2012-2-26,59.7,53.0,45.4,59.7,48.8,34.7,100,87,56,30.33,30.24,2,0,5,0.47
2012-2-27,78.8,66.4,59.9,71.4,64.4,59.9,100,94,65,30.29,30.18,5,0,9,2.01
2012-2-28,67.6,63.6,58.5,65.3,62.0,57.7,100,95,82,30.27,30.20,2,0,4,0.00
2012-2-29,84.7,70.6,60.2,69.6,62.7,59.8,100,79,44,30.21,30.05,3,1,9,0.00
2012-3-1,82.0,69.3,60.2,65.9,63.3,58.9,99,83,52,30.08,29.96,7,1,8,0.00
2012-3-2,84.1,69.8,61.0,64.9,62.3,58.1,100,80,44,30.02,29.90,7,1,12,0.00
2012-3-3,85.3,73.7,64.6,68.4,64.1,58.5,99,75,41,29.90,29.72,12,6,18,0.00
2012-3-4,75.1,58.6,38.5,67.6,42.2,21.8,96,61,19,30.19,29.56,12,4,18,0.30
2012-3-5,76.4,54.5,34.9,48.2,39.7,33.1,99,65,24,30.33,30.19,3,0,7,0.00
2012-3-6,75.5,59.9,42.6,52.2,48.0,40.4,95,68,41,30.40,30.30,5,1,11,0.00
2012-3-7,76.7,64.3,50.4,56.9,52.8,47.3,95,68,44,30.39,30.29,4,1,9,0.00
2012-3-8,83.9,67.8,52.1,64.3,57.0,50.9,100,73,35,30.29,30.12,4,1,7,0.00
2012-3-9,79.9,67.0,59.7,71.1,64.4,58.1,99,92,60,30.18,30.07,5,0,6,0.74
2012-3-10,70.5,64.3,59.4,63.4,59.7,56.6,99,86,71,30.25,30.10,5,2,16,0.00
2012-3-11,69.3,65.2,61.9,65.0,62.3,58.9,98,91,78,30.30,30.20,3,1,13,0.04
2012-3-12,80.6,68.7,58.5,59.2,57.6,55.3,92,70,44,30.29,30.18,3,0,5,0.00
2012-3-13,83.9,67.4,53.2,60.9,56.3,52.0,99,71,39,30.25,30.13,3,0,5,0.00
2012-3-14,85.3,68.7,54.4,62.5,57.3,52.4,99,71,37,30.23,30.11,3,0,8,0.00
2012-3-15,85.5,67.6,55.0,66.1,59.3,53.6,99,78,38,30.24,30.13,3,0,6,0.03
2012-3-16,83.7,68.2,53.8,65.3,58.0,53.0,100,74,35,30.23,30.10,2,0,5,0.00
2012-3-17,85.7,68.7,53.4,64.6,56.2,50.7,99,69,31,30.22,30.09,3,0,8,0.00
2012-3-18,85.7,67.9,52.5,63.5,56.1,50.8,99,70,32,30.24,30.10,2,0,5,0.00
2012-3-19,84.7,68.3,53.2,64.0,56.9,51.2,99,71,37,30.17,30.04,2,0,5,0.00
2012-3-20,83.0,68.1,56.2,68.7,59.6,54.5,99,77,39,30.10,30.00,3,0,8,0.12
2012-3-21,82.8,70.5,59.2,66.6,62.2,57.7,100,77,49,30.13,30.03,3,1,7,0.00
2012-3-22,86.6,73.2,61.7,66.4,62.4,55.0,99,72,36,30.16,30.02,4,0,8,0.00
2012-3-23,86.4,72.1,61.0,67.3,62.6,59.3,99,75,42,30.09,29.96,5,1,8,0.00
2012-3-24,83.5,70.4,61.1,65.5,62.3,59.3,98,78,49,30.00,29.86,7,2,13,0.04
2012-3-25,82.2,70.3,59.5,67.2,57.4,47.8,98,69,32,29.88,29.77,6,1,11,0.00
2012-3-26,84.7,66.2,51.2,56.2,52.5,47.3,98,67,29,30.00,29.85,3,1,7,0.00
2012-3-27,86.0,67.6,50.4,59.7,52.7,46.4,99,65,26,30.17,30.00,3,0,5,0.00
2012-3-28,84.5,69.7,54.9,64.8,57.3,52.3,99,69,34,30.17,30.02,2,0,5,0.00
2012-3-29,87.0,71.4,57.0,64.8,58.5,52.7,98,68,33,30.05,29.91,4,0,5,0.00
2012-3-30,85.1,69.7,55.2,64.3,58.5,53.0,99,71,37,30.03,29.91,4,0,6,0.00
2012-3-31,80.6,70.1,61.0,67.4,63.1,58.1,96,80,56,29.97,29.79,11,3,20,0.01
2012-4-1,87.4,70.7,57.0,68.2,61.6,56.4,100,77,38,29.90,29.81,6,1,10,0.01
2012-4-2,91.1,74.1,63.5,69.0,62.7,54.7,100,73,30,29.90,29.80,4,1,7,0.00
2012-4-3,92.6,72.7,59.4,68.9,59.0,47.7,99,69,25,29.94,29.83,3,0,8,0.00
2012-4-4,89.5,72.5,58.5,67.5,58.4,54.4,99,66,31,29.93,29.76,6,1,11,0.00
2012-4-5,87.4,73.6,66.4,65.5,62.9,59.7,92,71,44,29.80,29.69,4,1,12,0.00
2012-4-6,86.2,70.2,61.3,67.7,57.1,45.0,99,70,25,29.97,29.68,5,2,9,0.00
2012-4-7,80.4,66.6,52.3,52.6,49.3,45.9,84,57,30,30.16,29.97,4,1,11,0.00
2012-4-8,83.1,65.9,47.3,53.5,49.2,44.4,97,60,28,30.18,30.03,2,0,6,0.00
2012-4-9,85.3,66.8,50.7,58.5,51.8,47.6,97,64,29,30.09,29.94,3,0,5,0.00
2012-4-10,87.4,68.3,53.4,61.4,53.5,47.7,98,65,27,30.05,29.91,3,0,5,0.00
2012-4-11,86.4,69.4,55.6,62.6,54.1,45.8,99,65,26,30.03,29.90,3,1,7,0.00
2012-4-12,82.2,67.0,52.9,56.9,51.1,44.3,85,61,28,30.07,29.96,4,1,6,0.00
2012-4-13,84.7,68.7,54.6,61.0,55.9,47.6,96,69,28,30.14,30.01,3,0,5,0.00
2012-4-14,79.3,68.2,59.4,62.9,59.7,57.9,98,76,52,30.22,30.12,4,1,5,0.00
2012-4-15,84.3,70.9,58.3,59.9,57.0,53.4,95,65,36,30.20,30.11,2,0,6,0.00
2012-4-16,84.9,71.7,55.5,61.9,57.2,51.8,96,64,34,30.19,30.09,3,0,7,0.00
2012-4-17,85.5,72.1,55.5,61.3,56.6,51.7,97,62,32,30.16,30.00,4,0,6,0.00
2012-4-18,84.5,74.0,66.6,64.2,60.1,54.6,81,64,39,30.08,29.91,7,1,13,0.00
2012-4-19,81.4,71.4,60.3,69.1,63.6,57.7,97,78,55,29.96,29.83,7,1,8,0.35
2012-4-20,89.1,72.4,64.3,70.2,65.8,61.7,100,83,41,29.89,29.77,4,1,7,0.07
2012-4-21,77.8,68.6,64.2,66.9,65.0,63.6,99,90,64,29.83,29.58,11,0,11,1.16
2012-4-22,77.5,67.3,60.2,64.7,61.1,47.7,100,82,55,29.72,29.48,5,1,9,0.88
2012-4-23,72.5,59.9,49.2,47.8,41.9,36.0,84,54,27,29.87,29.72,7,1,10,0.00
2012-4-24,73.6,57.3,40.6,43.3,36.3,26.9,86,51,19,30.03,29.87,8,1,17,0.00
2012-4-25,82.2,62.8,43.9,53.3,47.0,40.3,97,62,30,30.12,30.01,3,0,9,0.00
2012-4-26,85.5,67.0,51.0,60.4,55.3,46.9,98,70,37,30.14,30.04,5,1,10,0.00
2012-4-27,88.7,70.1,54.3,64.9,55.5,48.3,99,66,26,30.14,30.02,2,0,3,0.00
2012-4-28,90.0,72.2,55.6,67.5,59.8,53.0,98,69,35,30.11,30.01,3,0,5,0.00
2012-4-29,88.7,74.1,62.1,70.5,63.4,58.3,99,73,36,30.13,30.03,2,0,7,0.00
2012-4-30,88.5,74.7,62.9,70.4,63.6,60.3,99,72,40,30.13,30.05,2,0,6,0.00
2012-5-1,88.7,75.8,65.9,68.5,65.4,62.6,98,73,43,30.12,30.01,2,1,5,0.00
2012-5-2,89.7,75.6,62.7,69.1,63.7,60.2,99,70,39,30.11,30.02,3,1,7,0.00
2012-5-3,88.9,75.2,64.8,68.7,64.5,58.9,99,73,37,30.13,30.02,2,0,6,0.00
2012-5-4,84.7,75.8,68.3,68.3,65.8,62.8,91,73,48,30.11,29.99,3,0,6,0.00
2012-5-5,91.9,77.5,64.0,67.4,63.6,57.6,96,66,34,30.02,29.89,3,0,6,0.00
2012-5-6,90.2,76.0,64.6,70.7,64.7,61.5,98,71,40,29.97,29.87,6,1,12,0.00
2012-5-7,89.1,72.0,63.3,70.2,65.6,60.8,99,83,39,29.93,29.85,7,0,7,0.53
2012-5-8,88.9,72.8,62.7,71.5,66.0,62.0,100,82,41,29.93,29.82,4,0,5,0.00
2012-5-9,87.8,75.3,64.0,70.6,66.5,63.1,99,77,45,29.89,29.75,8,2,10,0.00
2012-5-10,86.6,72.6,62.2,69.2,61.1,51.4,99,72,31,29.94,29.78,3,0,5,0.09
2012-5-11,87.2,72.5,59.5,64.1,57.4,52.5,98,64,31,30.14,29.93,2,0,3,0.00
2012-5-12,85.3,71.9,57.7,63.6,59.0,54.4,93,66,41,30.20,30.11,2,0,5,0.00
2012-5-13,83.0,72.4,61.9,65.6,62.2,58.5,93,72,52,30.16,30.03,3,0,6,0.00
2012-5-14,84.3,73.9,68.9,72.7,67.2,64.9,93,80,56,30.07,29.95,8,1,10,0.41
2012-5-15,89.1,76.1,66.9,70.1,66.6,62.0,98,75,42,30.03,29.91,5,1,5,0.00
2012-5-16,76.4,71.1,67.3,70.9,67.9,65.0,97,90,78,30.03,29.92,2,0,6,0.09
2012-5-17,87.4,74.2,66.6,69.4,65.4,60.6,99,77,41,29.98,29.84,3,0,7,0.01
2012-5-18,88.3,74.2,61.1,68.2,63.4,57.0,97,72,36,29.97,29.87,4,1,7,0.00
2012-5-19,85.3,72.4,62.1,66.2,62.5,60.1,99,74,46,30.04,29.93,4,1,9,0.00
2012-5-20,88.3,71.8,56.8,61.0,53.3,39.2,99,60,18,30.03,29.92,4,1,10,0.00
2012-5-21,90.4,73.1,55.3,59.6,56.1,52.1,94,60,29,29.99,29.89,4,1,8,0.00
2012-5-22,92.2,75.2,61.9,66.3,60.7,54.4,94,65,28,29.98,29.84,4,1,6,0.00
2012-5-23,91.5,76.5,62.2,71.2,64.4,59.2,99,70,37,29.93,29.81,2,0,7,0.00
2012-5-24,92.8,77.8,66.4,70.5,67.3,63.6,98,73,39,29.94,29.86,4,1,8,0.00
2012-5-25,94.6,78.3,65.4,72.0,65.5,59.8,99,69,34,30.07,29.92,5,1,10,0.00
2012-5-26,94.6,77.7,61.1,70.1,61.6,55.3,99,63,28,30.08,29.94,5,1,9,0.00
2012-5-27,90.8,75.9,65.4,74.8,65.7,61.8,95,73,40,29.99,29.79,9,1,17,0.31
2012-5-28,80.6,73.8,69.4,73.3,70.1,66.9,98,89,70,29.89,29.75,9,4,16,0.75
2012-5-29,73.6,71.7,68.9,72.6,70.7,68.1,99,97,89,29.93,29.82,8,3,14,2.23
2012-5-30,90.6,77.9,72.7,75.2,71.4,66.6,99,82,53,29.89,29.78,6,2,9,0.01
2012-5-31,91.5,78.8,69.4,75.4,70.2,66.4,99,78,45,29.92,29.81,8,1,9,0.00
2012-6-1,80.4,73.5,69.1,73.8,70.5,67.0,99,91,75,29.94,29.83,6,2,9,0.30
2012-6-2,88.5,77.8,69.6,71.9,68.7,64.0,99,76,45,29.97,29.86,6,1,15,0.00
2012-6-3,91.3,76.7,62.5,68.5,61.7,55.9,99,66,33,30.05,29.93,4,1,7,0.00
2012-6-4,88.5,82.6,75.3,71.2,69.3,67.0,87,65,51,29.92,29.82,6,2,11,0.00
2012-6-5,87.8,75.9,69.1,73.0,71.1,65.8,99,87,53,29.85,29.79,7,1,10,0.37
2012-6-6,82.4,73.8,69.8,73.0,70.2,67.0,99,89,65,29.93,29.82,9,2,14,0.21
2012-6-7,84.5,72.8,69.3,74.7,70.9,68.1,100,94,68,29.96,29.90,7,1,9,0.64
2012-6-8,77.8,72.3,69.6,75.0,71.7,69.6,100,98,84,29.98,29.91,4,0,5,0.45
2012-6-9,86.0,74.2,71.3,75.1,72.2,69.1,100,94,60,30.04,29.93,9,0,12,0.82
2012-6-10,89.3,77.3,71.3,76.7,72.9,68.9,100,88,60,30.14,30.00,3,0,7,0.58
2012-6-11,91.5,78.7,68.1,74.6,71.1,67.4,100,80,46,30.13,30.04,2,0,5,0.00
2012-6-12,91.3,79.9,70.3,73.9,70.2,67.1,95,74,46,30.10,29.91,4,1,10,0.00
2012-6-13,92.4,81.0,72.7,73.8,72.0,66.0,98,76,48,29.95,29.84,3,0,6,0.04
2012-6-14,89.5,74.0,69.8,73.1,70.8,65.5,99,91,57,30.02,29.88,4,0,6,0.40
2012-6-15,83.7,74.3,69.1,73.1,69.2,66.2,100,85,56,30.07,29.97,2,0,6,0.01
2012-6-16,86.6,74.8,65.1,70.2,66.9,64.4,100,79,51,30.09,30.01,5,1,8,0.00
2012-6-17,88.0,75.6,65.8,70.4,66.1,59.0,100,76,38,30.09,29.96,3,1,8,0.00
2012-6-18,88.5,75.1,63.5,69.9,63.9,60.0,99,72,41,30.07,29.98,1,0,4,0.00
2012-6-19,86.8,74.6,61.3,67.9,63.7,57.7,99,72,40,30.10,30.03,3,0,7,0.00
2012-6-20,86.0,78.1,70.1,71.1,68.5,65.7,97,74,53,30.08,30.00,3,1,6,0.01
2012-6-21,87.8,76.4,71.1,77.0,72.7,70.2,99,90,62,30.03,29.89,2,0,4,0.48
2012-6-22,87.0,75.3,72.0,76.6,73.4,71.5,100,94,62,29.93,29.85,2,0,2,0.19
2012-6-23,82.6,76.7,72.2,74.4,72.8,71.5,100,89,73,29.96,29.85,2,0,5,0.00
2012-6-24,76.9,73.9,71.8,74.7,73.0,71.5,100,97,90,29.96,29.75,4,1,8,3.23
2012-6-25,78.4,76.0,73.9,75.6,73.6,71.3,99,93,85,29.71,29.62,9,3,13,0.98
2012-6-26,84.3,77.6,70.5,76.5,72.6,69.8,99,85,73,29.62,29.53,13,5,24,0.64
2012-6-27,85.3,75.1,67.9,72.0,69.7,65.5,99,85,62,30.02,29.60,5,2,11,0.12
2012-6-28,90.0,74.9,61.3,69.5,64.0,58.4,100,74,38,30.09,30.00,2,0,5,0.00
2012-6-29,90.4,76.6,64.2,71.9,68.1,63.3,99,78,49,30.05,29.93,6,1,9,0.00
2012-6-30,90.6,77.6,65.8,74.2,69.9,65.2,100,79,54,30.00,29.91,5,1,8,0.00
2012-7-1,90.8,78.2,67.4,75.2,70.3,66.5,99,79,56,30.07,29.96,5,1,14,0.00
2012-7-2,91.3,78.4,70.6,75.4,71.8,68.9,99,82,55,30.09,29.98,4,1,8,0.06
2012-7-3,93.9,77.8,67.4,76.2,70.7,67.1,100,81,43,30.07,29.96,5,0,5,0.00
2012-7-4,93.0,76.0,69.3,73.8,70.6,67.9,99,86,47,30.09,29.99,5,0,5,0.42
2012-7-5,91.3,76.9,67.9,76.5,71.1,67.9,100,84,50,30.08,29.96,6,0,6,0.00
2012-7-6,91.5,79.4,71.1,75.3,72.8,69.4,99,82,49,30.05,29.97,4,0,5,0.00
2012-7-7,93.7,80.0,71.1,74.7,71.4,65.7,99,77,40,30.08,30.01,2,0,7,0.00
2012-7-8,95.1,80.3,72.9,74.9,71.7,68.3,97,77,44,30.11,30.00,3,0,6,0.00
2012-7-9,92.4,76.7,70.5,74.6,71.6,69.2,100,86,48,30.05,29.95,3,0,5,1.52
2012-7-10,91.5,77.3,69.6,75.5,71.9,69.3,100,85,49,30.04,29.96,2,0,5,0.00
2012-7-11,86.2,76.0,68.8,74.9,71.5,68.4,99,87,64,30.07,29.98,6,0,6,0.01
2012-7-12,86.2,75.6,68.6,75.6,72.0,68.3,100,89,61,30.05,29.96,2,0,5,0.01
2012-7-13,90.6,77.2,70.8,76.6,72.8,70.4,99,88,55,30.08,29.99,2,0,5,0.13
2012-7-14,88.7,79.2,70.6,75.8,71.8,68.4,100,80,52,30.12,30.01,2,0,6,0.01
2012-7-15,89.3,76.7,69.9,74.9,71.6,69.3,99,86,53,30.13,30.04,2,0,6,0.04
2012-7-16,91.9,78.7,71.3,73.3,71.6,67.2,100,81,46,30.07,29.94,4,0,7,0.04
2012-7-17,85.5,73.9,69.8,75.1,72.2,69.5,100,95,67,30.03,29.94,6,0,10,1.85
2012-7-18,81.0,74.7,71.3,74.6,72.4,70.2,100,93,74,30.11,29.99,6,1,15,0.44
2012-7-19,87.2,77.2,72.5,77.2,73.7,72.2,99,90,66,30.16,30.09,6,1,8,0.02
2012-7-20,92.6,80.9,71.8,77.5,73.1,70.2,100,80,49,30.13,30.03,3,1,6,0.00
2012-7-21,92.8,81.2,71.0,77.0,72.4,69.4,99,78,49,30.11,30.02,9,0,9,0.31
2012-7-22,92.2,78.3,71.1,79.0,73.4,70.6,100,87,54,30.18,30.08,3,0,7,0.07
2012-7-23,88.3,74.9,70.6,75.6,72.3,70.3,100,92,63,30.18,30.11,7,0,8,0.19
2012-7-24,87.2,75.9,70.1,76.4,72.7,70.0,100,91,65,30.14,30.00,7,1,8,0.36
2012-7-25,88.7,79.4,72.2,76.8,73.8,71.0,99,84,63,30.02,29.96,6,1,10,0.00
2012-7-26,91.5,80.4,73.0,75.4,73.9,72.5,99,82,57,30.02,29.95,7,2,10,0.00
2012-7-27,92.8,80.9,71.5,76.4,72.6,68.4,99,79,47,30.07,29.98,4,1,8,0.00
2012-7-28,92.6,81.2,71.8,76.3,72.9,71.2,99,78,52,30.10,30.00,4,0,9,0.00
2012-7-29,92.4,80.4,72.5,76.2,73.0,71.0,98,80,52,30.06,29.97,4,1,10,0.00
2012-7-30,84.3,75.1,70.5,76.2,73.1,69.6,99,94,74,30.04,29.96,6,1,8,0.95
2012-7-31,75.8,71.7,70.3,74.9,71.3,70.0,100,99,97,30.02,29.97,2,0,5,0.00
2012-8-5,74.3,73.6,72.9,73.7,73.2,72.6,99,98,98,30.10,30.06,0,0,6,0.10
2012-8-6,91.5,78.6,72.7,77.7,74.2,71.8,100,88,53,30.10,29.98,3,0,4,0.07
2012-8-7,89.5,77.3,72.0,75.2,73.1,71.2,99,88,58,30.04,29.97,6,1,15,0.03
2012-8-8,92.4,79.2,71.8,76.8,73.7,71.5,100,85,55,30.05,29.96,4,0,7,0.03
2012-8-9,91.7,79.3,70.6,75.4,72.5,67.7,100,82,48,30.04,29.91,3,0,7,0.01
2012-8-10,92.8,78.2,71.0,74.9,71.9,68.3,98,83,50,29.99,29.92,9,0,13,0.03
2012-8-11,90.4,77.5,69.9,74.7,72.5,69.3,99,86,54,29.99,29.90,7,0,9,0.02
2012-8-12,89.1,80.1,70.8,76.6,73.7,69.3,99,82,58,30.04,29.97,6,1,8,0.14
2012-8-13,85.1,77.7,72.2,78.9,74.3,71.9,100,90,71,30.07,29.98,3,0,5,0.53
2012-8-14,89.7,77.3,71.1,77.2,73.3,70.8,100,88,55,30.04,29.94,4,0,9,0.04
2012-8-15,92.4,79.6,70.8,75.0,72.4,70.4,100,81,52,30.05,29.96,3,0,6,0.00
2012-8-16,92.4,77.9,71.3,76.3,73.5,70.6,99,87,52,30.07,29.97,3,0,4,0.04
2012-8-17,87.0,78.5,72.3,76.7,73.4,69.9,99,86,60,30.03,29.92,3,0,4,0.50
2012-8-18,86.2,80.2,73.6,76.3,73.5,72.0,97,81,66,29.99,29.88,11,1,15,0.05
2012-8-19,89.1,76.8,72.0,78.1,73.9,71.7,99,92,61,29.97,29.89,9,1,18,1.23
2012-8-20,89.3,75.9,70.6,79.1,73.2,70.3,100,92,65,30.02,29.87,11,1,17,1.39
2012-8-21,88.3,73.5,69.1,76.0,71.5,68.1,100,95,64,30.11,29.94,14,1,23,0.40
2012-8-22,82.4,71.6,68.8,73.9,70.5,68.5,100,97,75,30.07,30.00,6,0,10,0.00
2012-8-23,85.5,78.1,72.5,74.4,72.9,71.6,97,85,66,30.08,30.03,2,0,7,0.00
2012-8-24,90.0,76.7,65.8,71.6,67.7,63.5,100,77,43,30.08,29.97,6,0,11,0.00
2012-8-25,86.6,74.7,68.9,74.5,71.3,68.0,100,90,62,30.05,29.99,6,0,16,0.55
2012-8-26,84.5,76.7,71.1,77.0,73.6,70.8,100,91,71,30.04,29.90,14,1,22,0.10
2012-8-27,78.9,76.1,73.2,77.3,74.2,72.5,99,94,87,29.89,29.79,8,1,15,0.47
2012-8-28,89.7,78.0,72.3,76.5,74.4,71.7,100,90,62,30.00,29.87,21,1,24,1.39
2012-8-29,88.3,77.5,72.0,76.4,73.8,71.5,100,89,62,30.00,29.92,7,1,10,0.01
2012-8-30,91.3,79.5,72.0,76.5,73.6,71.4,99,84,55,30.12,29.95,2,0,4,0.01
2012-8-31,90.8,80.1,73.0,77.0,73.6,71.2,100,82,55,30.19,30.10,2,0,5,0.00
2012-9-1,92.8,81.6,73.2,76.9,72.2,67.0,100,76,44,30.17,30.05,2,0,6,0.00
2012-9-2,89.1,78.6,68.9,74.2,70.7,67.7,99,79,53,30.09,29.98,1,0,2,0.00
2012-9-3,91.5,79.2,68.9,73.1,69.8,66.8,98,75,45,30.06,29.96,2,0,5,0.00
2012-9-4,93.3,79.5,69.6,74.2,69.3,60.7,99,75,34,30.02,29.92,3,0,7,0.00
2012-9-5,90.4,78.5,70.1,72.0,69.8,67.4,98,77,47,29.98,29.90,6,1,11,0.00
2012-9-6,89.7,78.6,70.1,74.3,71.6,68.9,98,81,55,30.01,29.92,9,1,12,0.00
2012-9-7,88.9,76.4,70.3,76.7,72.2,69.1,98,88,59,30.00,29.89,7,0,7,0.13
2012-9-8,88.7,78.3,71.5,78.1,72.3,69.0,99,83,56,29.94,29.84,8,2,14,0.10
2012-9-9,84.3,77.0,73.4,76.0,73.5,71.9,98,89,72,29.94,29.82,7,2,10,0.22
2012-9-10,88.3,77.3,70.6,74.3,71.1,65.9,98,83,59,30.05,29.91,3,0,6,0.00
2012-9-11,86.2,75.4,67.8,70.4,66.6,61.6,97,76,52,30.15,30.03,3,0,7,0.00
2012-9-12,87.6,74.5,65.3,73.2,67.5,63.9,99,81,52,30.16,30.09,2,0,6,0.00
2012-9-13,88.3,75.6,68.1,72.6,69.3,67.2,98,82,54,30.13,30.04,2,0,5,0.02
2012-9-14,86.8,73.9,68.4,76.3,70.9,67.2,99,91,60,30.10,30.01,3,0,7,0.86
2012-9-15,89.1,76.3,68.9,74.4,70.9,68.4,100,85,51,30.10,30.01,1,0,5,0.01
2012-9-16,88.7,76.3,71.1,76.0,72.3,68.7,99,89,54,30.07,29.98,3,0,7,0.31
2012-9-17,88.3,76.6,69.9,74.7,71.1,68.8,100,85,57,30.03,29.88,6,0,10,0.10
2012-9-18,82.4,74.5,71.3,76.3,73.0,70.5,99,95,80,29.94,29.84,6,1,9,0.64
2012-9-19,87.6,78.3,72.2,74.2,72.0,68.2,99,83,55,30.04,29.89,4,1,5,0.00
2012-9-20,86.2,77.1,68.3,73.4,70.5,65.2,98,82,55,30.05,29.94,4,0,7,0.00
2012-9-21,88.5,74.4,67.3,74.4,69.2,65.5,100,86,52,30.02,29.92,3,0,7,1.50
2012-9-22,88.0,76.8,67.9,74.7,70.3,67.6,100,82,53,30.04,29.95,1,0,2,0.01
2012-9-23,89.7,76.3,66.3,74.6,68.0,63.0,99,78,47,30.09,29.99,3,0,6,0.00
2012-9-24,85.5,71.1,58.9,65.2,59.4,52.8,97,71,34,30.12,30.02,3,0,9,0.00
2012-9-25,82.8,71.1,65.1,72.8,68.1,62.6,98,91,67,30.12,30.03,3,0,6,0.11
2012-9-26,90.8,75.8,64.6,74.5,68.2,63.1,100,80,41,30.13,30.04,2,0,6,0.00
2012-9-27,90.8,75.9,68.3,75.8,70.7,67.2,99,86,49,30.13,30.00,2,0,6,0.44
2012-9-28,89.7,76.2,68.3,75.2,70.8,68.0,100,85,53,30.07,29.95,3,0,5,0.01
2012-9-29,89.5,76.8,68.9,74.7,70.5,68.0,100,83,52,30.01,29.85,2,0,2,0.00
2012-9-30,90.4,78.6,70.5,76.2,71.6,67.1,99,82,47,29.93,29.78,5,0,7,0.00
2012-10-1,87.0,77.6,71.3,77.0,73.1,70.3,99,87,63,29.84,29.72,7,0,10,0.19
2012-10-2,84.7,77.4,73.4,75.2,73.3,71.3,98,88,68,30.04,29.80,8,2,16,0.09
2012-10-3,80.2,74.1,71.7,75.8,72.9,71.1,99,96,83,30.18,30.03,3,0,6,0.22
2012-10-4,89.1,76.1,68.1,77.4,71.7,68.1,100,88,56,30.24,30.09,8,0,11,0.95
2012-10-5,85.5,74.5,70.5,78.4,72.4,69.1,100,93,67,30.15,30.00,2,0,4,0.24
2012-10-6,87.2,75.9,69.1,76.7,71.6,66.5,100,88,60,30.03,29.90,2,0,7,0.01
2012-10-7,87.2,75.2,66.8,74.2,70.2,66.5,100,86,59,30.03,29.93,1,0,4,0.01
2012-10-8,76.7,72.4,70.3,73.6,71.1,69.7,99,96,86,30.05,29.97,0,0,0,0.00
2012-10-9,81.6,72.7,67.3,71.5,69.3,65.3,99,90,69,30.10,30.00,2,0,5,0.00
2012-10-10,83.9,71.7,61.9,68.0,64.0,60.6,99,80,48,30.16,30.06,3,0,6,0.00
2012-10-11,68.1,64.9,61.9,61.7,60.6,59.1,91,86,80,30.21,30.20,0,0,5,0.00
2012-10-12,85.1,69.8,58.0,66.5,61.0,57.4,100,77,46,30.23,30.13,7,1,12,0.00
2012-10-13,84.5,74.7,60.3,67.8,65.0,59.7,99,74,51,30.23,30.06,12,2,12,0.00
2012-10-14,88.8,74.2,63.2,71.6,67.5,62.6,99,82,53,30.09,29.95,1,0,4,0.00
2012-10-15,79.6,69.8,66.4,70.4,67.6,65.2,98,93,73,29.94,29.77,0,0,0,0.00
2012-10-16,85.3,71.7,63.2,67.9,62.0,55.5,99,75,38,29.84,29.75,4,0,9,0.00
2012-10-17,77.2,68.9,61.2,70.5,65.5,58.7,96,89,77,29.85,29.76,1,0,4,0.00
2012-10-18,77.7,69.9,65.5,71.7,67.3,64.4,99,92,68,29.83,29.76,3,0,7,0.00
2012-10-19,83.6,72.1,62.4,72.7,67.0,61.4,100,85,63,29.82,29.74,2,0,5,0.00
2012-10-20,84.3,69.3,55.1,66.9,53.4,42.0,96,63,23,29.91,29.80,4,0,8,0.00
2012-10-21,84.0,64.9,50.7,57.8,52.9,49.0,97,70,34,30.03,29.90,4,0,6,0.00
2012-10-22,85.3,67.7,54.7,66.2,59.7,53.6,99,78,45,30.05,29.97,4,1,12,0.00
2012-10-23,84.5,69.7,57.6,66.1,61.7,57.0,99,79,48,30.04,29.94,3,0,9,0.00
2012-10-24,87.6,72.6,61.2,70.5,65.0,60.3,99,79,49,30.00,29.89,3,0,5,0.00
2012-10-25,87.0,73.3,65.3,71.8,67.9,64.1,97,84,52,29.91,29.80,4,1,10,0.00
2012-10-26,85.5,75.0,69.4,69.5,66.4,60.2,96,76,47,29.79,29.61,8,4,20,0.00
2012-10-27,73.0,69.2,65.3,61.8,60.1,58.0,81,73,66,29.64,29.52,7,3,13,0.00
2012-10-28,75.4,63.1,56.5,60.6,56.5,50.4,95,80,53,29.75,29.62,4,1,12,0.00
2012-10-29,69.9,56.1,45.2,50.4,41.5,32.5,84,61,25,29.81,29.66,4,1,7,0.00
2012-10-30,66.3,52.7,41.2,43.0,35.5,28.1,80,55,24,29.88,29.76,7,1,12,0.00
2012-10-31,73.2,56.3,41.9,50.9,41.4,33.6,89,62,27,29.98,29.87,4,1,8,0.00
2012-11-1,77.7,62.2,51.7,62.2,55.6,48.8,99,81,55,29.96,29.85,3,0,10,0.00
2012-11-2,80.9,59.9,44.3,55.0,46.6,42.0,99,68,27,30.03,29.94,4,0,6,0.00
2012-11-3,85.9,65.3,50.7,66.1,56.5,48.5,99,77,38,30.07,29.98,1,0,5,0.00
2012-11-4,82.2,65.2,54.1,67.3,58.7,51.9,100,82,47,30.06,29.93,5,0,8,0.00
2012-11-5,82.6,68.6,55.7,67.1,59.7,51.7,100,77,40,29.94,29.85,2,0,7,0.00
2012-11-6,78.5,60.7,51.1,60.5,53.5,48.7,98,80,43,29.89,29.74,3,0,8,0.01
2012-11-7,66.9,56.6,47.7,54.6,47.4,43.0,97,74,43,29.94,29.80,5,1,8,0.00
2012-11-8,69.3,51.7,39.5,45.3,41.8,37.4,96,73,37,30.13,29.94,4,1,7,0.00
2012-11-9,74.9,52.6,36.0,49.7,38.3,32.8,100,66,23,30.23,30.12,3,0,4,0.00
2012-11-10,78.6,57.1,38.9,54.9,46.7,36.3,98,72,35,30.27,30.18,3,0,5,0.00
2012-11-11,81.8,64.1,50.7,62.8,55.9,48.5,99,78,46,30.26,30.18,2,0,4,0.00
2012-11-12,83.4,68.2,55.1,66.8,60.3,53.4,99,78,45,30.20,30.11,2,0,6,0.00
2012-11-13,81.8,68.1,56.9,67.7,60.8,55.2,98,80,50,30.14,30.04,1,0,4,0.00
2012-11-14,71.1,65.3,59.9,64.2,62.4,58.4,98,91,76,30.15,30.06,4,1,7,0.00
2012-11-15,61.5,59.0,56.5,61.2,57.5,54.3,99,95,89,30.12,30.03,2,1,6,0.01
2012-11-16,64.5,58.3,55.0,54.8,53.1,52.0,94,83,67,30.14,30.06,3,2,7,0.00
2012-11-17,74.7,61.4,54.1,62.5,56.1,52.2,95,83,64,30.15,30.06,6,2,13,0.00
2012-11-18,71.5,58.5,47.9,57.0,52.7,45.2,93,82,58,30.17,30.08,3,1,8,0.00
2012-11-19,59.2,54.9,46.4,53.5,51.5,44.5,99,89,79,30.13,30.04,5,1,6,0.00
2012-11-20,75.8,61.3,50.4,56.7,53.8,47.6,91,78,51,30.05,29.94,5,1,11,0.00
2012-11-21,75.4,58.4,44.8,54.8,48.2,41.2,99,73,35,30.04,29.95,4,1,10,0.00
2012-11-22,73.2,52.6,38.3,45.9,37.4,32.0,98,64,23,30.13,30.03,8,2,14,0.00
2012-11-23,75.4,51.3,33.2,46.0,37.8,31.1,99,67,26,30.16,30.02,3,0,5,0.00
2012-11-24,73.2,53.6,39.9,56.0,45.5,36.3,99,77,37,30.06,29.94,5,0,9,0.00
2012-11-25,72.0,48.3,34.0,40.4,32.5,22.4,95,64,16,30.13,30.03,2,0,5,0.00
2012-11-26,76.8,53.4,33.2,52.2,42.0,30.6,96,70,34,30.19,30.08,1,0,5,0.00
2012-11-27,79.9,63.2,51.1,62.6,55.6,46.6,99,78,49,30.14,30.02,5,0,9,0.00
2012-11-28,63.1,57.5,51.7,59.1,53.9,49.9,99,88,75,30.25,30.06,5,1,9,0.00
2012-11-29,76.7,59.2,47.4,56.8,51.3,46.9,100,79,41,30.25,30.17,3,1,6,0.00
2012-11-30,78.3,59.9,46.5,60.9,52.4,45.7,100,79,45,30.23,30.12,1,0,5,0.00
2012-12-1,77.9,62.4,51.4,62.2,56.2,48.2,99,82,53,30.22,30.14,5,0,5,0.00
2012-12-2,83.0,64.5,52.0,63.7,58.2,51.2,100,83,43,30.25,30.14,2,0,4,0.00
2012-12-3,81.4,67.2,57.5,65.2,60.2,54.8,98,81,41,30.25,30.14,1,0,4,0.00
2012-12-4,81.2,64.4,50.4,61.7,53.2,49.0,99,72,35,30.25,30.14,1,0,4,0.00
2012-12-5,78.6,64.6,49.1,61.1,56.5,46.9,97,77,48,30.13,30.01,3,0,5,0.00
2012-12-6,73.7,62.3,56.9,61.4,60.0,54.6,99,93,65,30.01,29.91,1,0,2,0.00
2012-12-7,78.6,66.8,61.0,64.6,62.3,58.6,97,86,60,29.98,29.88,2,-16,5,0.00
2012-12-8,76.5,67.0,59.5,67.5,63.8,59.2,100,90,72,30.01,29.93,2,0,3,0.00
2012-12-9,80.1,68.0,58.1,68.5,63.8,55.5,99,88,62,30.04,29.95,4,0,6,0.00
2012-12-10,78.6,66.7,54.8,72.4,64.2,54.5,100,93,72,29.97,29.76,7,1,8,0.19
2012-12-11,79.6,71.2,66.3,69.8,67.8,66.0,100,90,66,29.98,29.81,3,0,6,0.03
2012-12-12,70.4,67.5,63.9,70.1,67.1,63.6,99,99,97,30.04,29.92,2,0,3,0.02
2012-12-13,59.2,55.6,51.4,58.9,54.5,49.7,99,96,90,30.18,30.03,7,1,10,0.01
2012-12-14,62.3,54.8,49.8,56.7,52.7,49.4,100,93,80,30.21,30.08,8,1,14,0.00
2012-12-15,78.8,64.0,50.1,64.0,57.7,49.6,99,82,55,30.11,30.00,5,0,9,0.00
2012-12-16,79.2,63.9,53.8,65.1,58.1,52.4,100,83,53,30.01,29.89,7,0,10,0.00
2012-12-17,81.2,67.4,55.9,67.5,61.4,54.2,100,83,49,29.92,29.77,12,2,18,0.00
2012-12-18,80.3,67.5,46.0,68.8,58.8,42.2,98,77,35,29.98,29.81,9,1,15,0.00
2012-12-19,77.0,55.3,37.9,51.8,42.8,36.1,99,70,28,30.07,29.97,2,0,6,0.00
2012-12-20,81.4,65.2,48.0,68.9,58.5,45.8,100,81,51,30.03,29.83,13,3,21,0.33
2012-12-21,66.1,50.5,39.3,64.3,35.1,24.4,94,58,24,30.15,29.86,12,1,18,0.01
2012-12-22,64.8,44.0,30.3,32.2,24.7,19.2,89,53,18,30.24,30.13,7,1,15,0.00
2012-12-23,68.1,46.0,28.4,42.8,32.1,24.8,98,67,20,30.22,30.09,2,0,6,0.00
2012-12-24,67.4,55.8,43.2,52.9,47.1,39.9,92,74,56,30.09,29.92,11,1,19,0.00
2012-12-25,73.2,61.8,52.8,59.8,55.8,49.7,97,82,59,29.96,29.83,4,0,10,0.00
2012-12-26,72.5,62.1,44.2,67.2,55.6,35.7,96,80,61,29.94,29.71,19,3,25,0.13
2012-12-27,62.4,44.3,32.8,42.3,35.6,30.5,94,74,42,30.07,29.94,5,1,11,0.00
2012-12-28,67.1,51.4,33.1,60.3,43.3,31.1,99,77,44,30.06,29.85,5,0,10,0.09
2012-12-29,73.0,64.1,46.8,70.7,58.4,39.6,99,83,51,30.12,29.77,16,3,24,0.52
2012-12-30,56.6,43.9,33.7,39.6,34.5,30.6,90,71,43,30.33,30.12,12,1,15,0.00
2012-12-31,72.5,53.0,36.9,55.8,46.3,35.1,98,81,52,30.32,30.15,6,0,12,0.00
2013-1-1,78.3,61.7,48.5,58.7,54.3,47.1,99,79,50,30.17,29.99,12,1,18,0.00